createdAt,value
2024-01-03T00:01:37.249Z,7.72
2024-01-03T00:05:40.891Z,7.74
2024-01-03T00:09:42.436Z,7.79
2024-01-03T00:14:08.361Z,7.83
2024-01-03T00:18:33.598Z,7.83
2024-01-03T00:22:37.395Z,7.85
2024-01-03T00:26:41.981Z,7.98
2024-01-03T00:30:43.653Z,8.08
2024-01-03T00:34:47.349Z,8.09
2024-01-03T00:38:48.954Z,8.02
2024-01-03T00:42:51.120Z,8.01
2024-01-03T00:46:54.770Z,7.86
2024-01-03T00:50:58.093Z,7.85
2024-01-03T00:54:59.690Z,7.80
2024-01-03T00:59:01.427Z,7.95
2024-01-03T01:03:03.071Z,8.07
2024-01-03T01:07:06.172Z,8.15
2024-01-03T01:11:07.810Z,8.24
2024-01-03T01:15:09.629Z,8.35
2024-01-03T01:19:11.383Z,8.27
2024-01-03T01:23:14.403Z,8.30
2024-01-03T01:27:16.025Z,8.42
2024-01-03T01:31:17.579Z,8.38
2024-01-03T01:35:19.297Z,8.25
2024-01-03T01:39:22.254Z,8.38
2024-01-03T01:43:23.983Z,8.34
2024-01-03T01:47:27.031Z,8.32
2024-01-03T01:51:28.786Z,8.46
2024-01-03T01:55:31.779Z,8.48
2024-01-03T01:59:34.388Z,8.60
2024-01-03T02:03:38.063Z,8.52
2024-01-03T02:07:39.606Z,8.37
2024-01-03T02:11:48.574Z,8.44
2024-01-03T02:15:50.104Z,8.27
2024-01-03T02:19:51.924Z,8.23
2024-01-03T02:23:54.915Z,8.13
2024-01-03T02:27:56.418Z,8.31
2024-01-03T02:31:58.923Z,8.22
2024-01-03T02:36:00.542Z,8.36
2024-01-03T02:40:04.014Z,8.46
2024-01-03T02:44:05.547Z,8.44
2024-01-03T02:48:08.292Z,8.38
2024-01-03T02:52:10.070Z,8.68
2024-01-03T02:56:13.144Z,8.64
2024-01-03T03:00:15.175Z,8.78
2024-01-03T03:04:16.745Z,8.85
2024-01-03T03:08:18.342Z,8.92
2024-01-03T03:12:21.261Z,8.98
2024-01-03T03:16:22.905Z,8.97
2024-01-03T03:20:24.446Z,9.04
2024-01-03T03:24:25.997Z,9.05
2024-01-03T03:28:28.876Z,9.06
2024-01-03T03:32:30.550Z,8.99
2024-01-03T03:36:32.140Z,9.09
2024-01-03T03:40:33.709Z,9.06
2024-01-03T03:44:36.770Z,8.84
2024-01-03T03:48:38.691Z,8.76
2024-01-03T03:52:43.240Z,8.83
2024-01-03T03:56:44.865Z,8.79
2024-01-03T04:00:48.167Z,8.76
2024-01-03T04:04:49.748Z,8.97
2024-01-03T04:08:51.278Z,8.80
2024-01-03T04:12:52.905Z,9.04
2024-01-03T04:16:55.840Z,8.99
2024-01-03T04:20:57.439Z,8.86
2024-01-03T04:24:58.989Z,8.94
2024-01-03T04:29:00.530Z,8.93
2024-01-03T04:33:03.837Z,8.94
2024-01-03T04:37:05.589Z,9.21
2024-01-03T04:41:07.389Z,9.14
2024-01-03T04:45:09.667Z,9.04
2024-01-03T04:49:12.971Z,9.14
2024-01-03T04:53:14.679Z,8.92
2024-01-03T04:57:19.566Z,8.82
2024-01-03T05:01:22.102Z,8.68
2024-01-03T05:05:25.024Z,8.48
2024-01-03T05:09:26.806Z,8.70
2024-01-03T05:13:28.324Z,8.46
2024-01-03T05:17:30.099Z,8.54
2024-01-03T05:21:33.101Z,8.50
2024-01-03T05:25:34.638Z,8.54
2024-01-03T05:29:36.312Z,8.40
2024-01-03T05:33:38.107Z,8.54
2024-01-03T05:37:41.111Z,8.64
2024-01-03T05:41:42.706Z,8.68
2024-01-03T05:45:46.529Z,8.82
2024-01-03T05:49:48.130Z,8.66
2024-01-03T05:53:51.111Z,8.61
2024-01-03T05:57:52.875Z,8.56
2024-01-03T06:01:56.742Z,8.53
2024-01-03T06:05:58.599Z,8.30
2024-01-03T06:10:01.489Z,8.42
2024-01-03T06:14:03.223Z,8.44
2024-01-03T06:18:05.270Z,8.27
2024-01-03T06:22:06.930Z,8.29
2024-01-03T06:26:12.998Z,8.29
2024-01-03T06:30:14.823Z,8.33
2024-01-03T06:34:16.833Z,8.49
2024-01-03T06:38:18.499Z,8.29
2024-01-03T06:42:21.408Z,8.38
2024-01-03T06:46:25.895Z,8.51
2024-01-03T06:50:27.450Z,8.62
2024-01-03T06:54:29.020Z,8.61
2024-01-03T06:58:32.145Z,8.32
2024-01-03T07:02:34.012Z,8.57
2024-01-03T07:06:35.676Z,8.62
2024-01-03T07:10:37.334Z,8.42
2024-01-03T07:14:42.605Z,8.53
2024-01-03T07:18:44.980Z,8.66
2024-01-03T07:22:46.606Z,8.65
2024-01-03T07:26:48.165Z,8.55
2024-01-03T07:30:53.434Z,8.71
2024-01-03T07:34:55.245Z,8.69
2024-01-03T07:38:56.829Z,8.74
2024-01-03T07:42:58.363Z,8.66
2024-01-03T07:47:01.272Z,8.54
2024-01-03T07:51:02.929Z,8.73
2024-01-03T07:55:05.157Z,8.58
2024-01-03T07:59:06.682Z,8.62
2024-01-03T08:03:09.798Z,8.55
2024-01-03T08:07:11.538Z,8.75
2024-01-03T08:11:13.077Z,8.90
2024-01-03T08:15:14.792Z,8.85
2024-01-03T08:19:17.783Z,8.76
2024-01-03T08:23:19.491Z,8.86
2024-01-03T08:27:21.120Z,8.75
2024-01-03T08:31:22.824Z,9.00
2024-01-03T08:35:25.839Z,9.27
2024-01-03T08:39:27.428Z,9.35
2024-01-03T08:43:28.939Z,9.40
2024-01-03T08:47:30.570Z,9.52
2024-01-03T08:51:33.612Z,9.48
2024-01-03T08:55:35.200Z,9.55
2024-01-03T08:59:36.841Z,9.75
2024-01-03T09:03:39.259Z,9.93
2024-01-03T09:07:43.841Z,10.01
2024-01-03T09:11:47.722Z,10.07
2024-01-03T09:15:49.231Z,10.10
2024-01-03T09:19:51.586Z,10.15
2024-01-03T09:23:54.675Z,9.86
2024-01-03T09:27:56.256Z,9.99
2024-01-03T09:31:57.801Z,9.90
2024-01-03T09:35:59.497Z,9.78
2024-01-03T09:40:02.508Z,9.74
2024-01-03T09:44:07.132Z,9.73
2024-01-03T09:48:11.622Z,9.55
2024-01-03T09:52:15.246Z,9.38
2024-01-03T09:56:18.333Z,9.53
2024-01-03T10:00:20.257Z,9.56
2024-01-03T10:04:21.794Z,9.60
2024-01-03T10:08:23.349Z,9.63
2024-01-03T10:12:30.815Z,9.62
2024-01-03T10:16:32.396Z,9.54
2024-01-03T10:20:34.048Z,9.65
2024-01-03T10:24:41.704Z,9.69
2024-01-03T10:28:44.564Z,9.78
2024-01-03T10:32:57.598Z,9.86
2024-01-03T10:36:59.503Z,9.94
2024-01-03T10:41:01.311Z,9.99
2024-01-03T10:45:05.144Z,10.05
2024-01-03T10:49:07.332Z,10.05
2024-01-03T10:53:09.677Z,10.14
2024-01-03T10:57:14.910Z,10.07
2024-01-03T11:01:21.848Z,10.10
2024-01-03T11:05:34.168Z,10.19
2024-01-03T11:09:36.085Z,10.38
2024-01-03T11:13:40.122Z,10.42
2024-01-03T11:17:43.154Z,10.56
2024-01-03T11:21:46.101Z,10.69
2024-01-03T11:25:47.764Z,10.57
2024-01-03T11:29:49.337Z,10.71
2024-01-03T11:33:52.349Z,10.88
2024-01-03T11:37:54.047Z,10.80
2024-01-03T11:41:59.105Z,10.96
2024-01-03T11:46:08.720Z,11.05
2024-01-03T11:50:13.269Z,11.09
2024-01-03T11:54:14.956Z,11.16
2024-01-03T11:58:16.479Z,11.49
2024-01-03T12:02:18.132Z,11.37
2024-01-03T12:06:21.516Z,11.12
2024-01-03T12:10:24.277Z,11.17
2024-01-03T12:14:25.930Z,11.37
2024-01-03T12:18:27.633Z,11.53
2024-01-03T12:22:30.593Z,11.32
2024-01-03T12:26:32.155Z,10.99
2024-01-03T12:30:34.099Z,11.09
2024-01-03T12:34:35.916Z,11.21
2024-01-03T12:38:38.908Z,11.36
2024-01-03T12:42:42.880Z,11.39
2024-01-03T12:46:47.373Z,11.33
2024-01-03T12:50:49.018Z,11.29
2024-01-03T12:54:51.925Z,11.08
2024-01-03T12:58:53.785Z,11.03
2024-01-03T13:02:55.682Z,10.89
2024-01-03T13:06:57.444Z,10.88
2024-01-03T13:11:00.320Z,10.60
2024-01-03T13:15:01.958Z,10.52
2024-01-03T13:19:03.822Z,10.33
2024-01-03T13:23:05.614Z,10.46
2024-01-03T13:27:08.903Z,10.26
2024-01-03T13:31:14.262Z,10.20
2024-01-03T13:35:15.784Z,10.25
2024-01-03T13:39:17.448Z,10.18
2024-01-03T13:43:20.368Z,10.10
2024-01-03T13:47:21.986Z,10.59
2024-01-03T13:51:24.085Z,10.79
2024-01-03T13:55:26.086Z,10.55
2024-01-03T13:59:29.037Z,10.26
2024-01-03T14:03:31.506Z,9.99
2024-01-03T14:07:33.141Z,9.87
2024-01-03T14:11:34.645Z,9.72
2024-01-03T14:15:37.540Z,9.55
2024-01-03T14:19:39.236Z,9.49
2024-01-03T14:23:40.773Z,9.42
2024-01-03T14:27:42.643Z,9.49
2024-01-03T14:31:45.516Z,9.47
2024-01-03T14:35:47.065Z,9.46
2024-01-03T14:39:48.676Z,9.26
2024-01-03T14:43:50.297Z,9.45
2024-01-03T14:47:53.401Z,9.42
2024-01-03T14:51:55.174Z,9.57
2024-01-03T14:55:57.052Z,9.64
2024-01-03T14:59:58.651Z,9.72
2024-01-03T15:04:01.583Z,9.72
2024-01-03T15:08:03.201Z,9.83
2024-01-03T15:12:05.341Z,9.80
2024-01-03T15:16:07.298Z,9.71
2024-01-03T15:20:11.227Z,9.81
2024-01-03T15:24:12.801Z,9.61
2024-01-03T15:28:14.577Z,9.58
2024-01-03T15:32:16.369Z,9.54
2024-01-03T15:36:19.308Z,9.42
2024-01-03T15:40:21.911Z,9.49
2024-01-03T15:44:23.971Z,9.26
2024-01-03T15:48:25.809Z,9.15
2024-01-03T15:52:28.895Z,9.10
2024-01-03T15:56:30.570Z,8.90
2024-01-03T16:00:32.154Z,9.07
2024-01-03T16:04:34.261Z,9.24
2024-01-03T16:08:37.584Z,9.27
2024-01-03T16:12:39.185Z,9.20
2024-01-03T16:16:41.621Z,9.00
2024-01-03T16:20:43.239Z,8.96
2024-01-03T16:24:46.325Z,8.96
2024-01-03T16:28:49.461Z,9.04
2024-01-03T16:32:51.100Z,9.01
2024-01-03T16:36:53.108Z,8.94
2024-01-03T16:40:55.975Z,9.00
2024-01-03T16:44:57.613Z,8.82
2024-01-03T16:48:59.301Z,8.76
2024-01-03T16:53:00.899Z,8.46
2024-01-03T16:57:04.406Z,8.55
2024-01-03T17:01:06.003Z,8.62
2024-01-03T17:05:08.152Z,8.59
2024-01-03T17:09:12.836Z,8.62
2024-01-03T17:13:15.784Z,8.78
2024-01-03T17:17:17.472Z,8.86
2024-01-03T17:21:19.300Z,8.80
2024-01-03T17:25:20.801Z,8.79
2024-01-03T17:29:23.779Z,8.84
2024-01-03T17:33:25.426Z,8.60
2024-01-03T17:37:27.055Z,8.38
2024-01-03T17:41:28.649Z,8.45
2024-01-03T17:45:31.538Z,8.54
2024-01-03T17:49:33.414Z,8.54
2024-01-03T17:53:35.139Z,8.57
2024-01-03T17:57:36.714Z,8.68
2024-01-03T18:01:42.946Z,8.72
2024-01-03T18:05:44.660Z,8.69
2024-01-03T18:09:46.990Z,8.81
2024-01-03T18:13:48.557Z,8.63
2024-01-03T18:17:53.935Z,8.63
2024-01-03T18:21:55.748Z,8.60
2024-01-03T18:25:57.312Z,8.66
2024-01-03T18:29:58.891Z,8.63
2024-01-03T18:34:01.987Z,8.55
2024-01-03T18:38:03.886Z,8.55
2024-01-03T18:42:05.496Z,8.54
2024-01-03T18:46:07.263Z,8.63
2024-01-03T18:50:10.809Z,8.68
2024-01-03T18:54:12.446Z,8.66
2024-01-03T18:58:14.046Z,8.72
2024-01-03T19:02:15.599Z,8.66
2024-01-03T19:06:18.751Z,8.55
2024-01-03T19:10:20.340Z,8.58
2024-01-03T19:14:21.826Z,8.54
2024-01-03T19:18:23.489Z,8.69
2024-01-03T19:22:26.471Z,8.53
2024-01-03T19:26:29.624Z,8.33
2024-01-03T19:30:31.648Z,8.58
2024-01-03T19:34:33.422Z,8.55
2024-01-03T19:38:36.328Z,8.53
2024-01-03T19:42:37.897Z,8.60
2024-01-03T19:46:39.447Z,8.58
2024-01-03T19:50:41.849Z,8.54
2024-01-03T19:54:44.804Z,8.48
2024-01-03T19:58:46.785Z,8.34
2024-01-03T20:02:48.295Z,8.53
2024-01-03T20:06:51.322Z,8.71
2024-01-03T20:10:54.196Z,8.61
2024-01-03T20:14:55.951Z,8.59
2024-01-03T20:18:57.707Z,8.64
2024-01-03T20:22:59.306Z,8.61
2024-01-03T20:27:02.240Z,8.46
2024-01-03T20:31:04.514Z,8.43
2024-01-03T20:35:07.315Z,8.46
2024-01-03T20:39:08.958Z,8.52
2024-01-03T20:43:11.871Z,8.60
2024-01-03T20:47:13.518Z,8.47
2024-01-03T20:51:15.504Z,8.40
2024-01-03T20:55:17.148Z,8.72
2024-01-03T20:59:21.211Z,8.65
2024-01-03T21:03:22.856Z,8.50
2024-01-03T21:07:24.450Z,8.70
2024-01-03T21:11:25.976Z,8.57
2024-01-03T21:15:29.097Z,8.67
2024-01-03T21:19:30.810Z,8.49
2024-01-03T21:23:32.473Z,8.37
2024-01-03T21:27:46.285Z,8.45
2024-01-03T21:31:53.660Z,8.61
2024-01-03T21:35:55.308Z,8.41
2024-01-03T21:39:56.927Z,8.55
2024-01-03T21:43:58.418Z,8.57
2024-01-03T21:48:04.315Z,8.37
2024-01-03T21:52:06.611Z,8.37
2024-01-03T21:56:08.131Z,8.27
2024-01-03T22:00:10.734Z,8.39
2024-01-03T22:04:13.833Z,8.31
2024-01-03T22:08:15.418Z,8.28
2024-01-03T22:12:17.148Z,8.41
2024-01-03T22:16:18.831Z,8.31
2024-01-03T22:20:21.884Z,8.41
2024-01-03T22:24:23.535Z,8.19
2024-01-03T22:28:25.116Z,8.12
2024-01-03T22:32:26.709Z,8.16
2024-01-03T22:36:29.601Z,8.16
2024-01-03T22:40:31.141Z,8.25
2024-01-03T22:44:32.746Z,8.25
2024-01-03T22:48:34.510Z,8.34
2024-01-03T22:52:37.472Z,8.30
2024-01-03T22:56:39.251Z,8.34
2024-01-03T23:00:42.428Z,8.41
2024-01-03T23:04:44.057Z,8.23
2024-01-03T23:08:47.062Z,8.23
2024-01-03T23:12:48.730Z,8.11
2024-01-03T23:16:52.229Z,8.02
2024-01-03T23:20:53.971Z,8.05
2024-01-03T23:24:57.072Z,7.86
2024-01-03T23:28:58.613Z,7.89
2024-01-03T23:33:00.269Z,7.66
2024-01-03T23:37:01.936Z,7.65
2024-01-03T23:41:04.886Z,7.63
2024-01-03T23:45:07.495Z,7.69
2024-01-03T23:49:09.327Z,7.44
2024-01-03T23:53:10.932Z,7.56
2024-01-03T23:57:13.922Z,7.54
